This is the latest recevied weather packets stored in our database for station/object KB3MVG-13. If no packets are shown the sender has not sent any weather packets the latest 10 day(s).
| Time | Temp. | Humidity | Pressure | Rain* | Wind** | Luminosity | Snow |
|---|---|---|---|---|---|---|---|
| 1777839637 | 21.11° C | 12% | 1018.5 hPa | 0 mm | - | 622 W/m² | - |
| 1777833617 | 20° C | 14% | 1019.8 hPa | 0 mm | - | 398 W/m² | - |
| 1777832417 | 19.44° C | 15% | 1020.1 hPa | 0 mm | - | 553 W/m² | - |
| 1777828216 | 18.33° C | 17% | 1020.8 hPa | 0 mm | - | 426 W/m² | - |
| 1777827617 | 18.33° C | 16% | 1021 hPa | 0 mm | - | 379 W/m² | - |
| 1777826416 | 17.22° C | 18% | 1021.2 hPa | 0 mm | - | 326 W/m² | - |
| 1777825816 | 17.22° C | 21% | 1021.3 hPa | 0 mm | - | 324 W/m² | - |
| 1777822216 | 16.11° C | 21% | 1021.4 hPa | 0 mm | - | 320 W/m² | - |
| 1777815056 | 12.78° C | 22% | 1022.3 hPa | 0 mm | - | 117 W/m² | - |
| 1777813216 | 11.11° C | 26% | 1021.9 hPa | 0 mm | - | 75 W/m² | - |
| 1777809036 | 12.78° C | 23% | 1022.5 hPa | 0 mm | - | 0 W/m² | - |
| 1777804236 | 12.78° C | 23% | 1022.4 hPa | 0 mm | - | 0 W/m² | - |
| 1777803016 | 12.78° C | 24% | 1022.5 hPa | 0 mm | - | 0 W/m² | - |
| 1777801856 | 12.78° C | 25% | 1022.6 hPa | 0 mm | - | 0 W/m² | - |
| 1777798816 | 12.78° C | 25% | 1023.1 hPa | 0 mm | - | 0 W/m² | - |
| 1777798216 | 12.78° C | 25% | 1023.1 hPa | 0 mm | - | 0 W/m² | - |
| 1777795856 | 13.89° C | 23% | 1023 hPa | 0 mm | - | 0 W/m² | - |
| 1777789816 | 13.33° C | 17% | 1023 hPa | 0 mm | - | 0 W/m² | - |
| 1777782015 | 13.89° C | 19% | 1022.5 hPa | 0 mm | - | 0 W/m² | - |
| 1777778435 | 15° C | 20% | 1022.4 hPa | 0 mm | - | 0 W/m² | - |
| 1777772415 | 18.33° C | 9% | 1021.9 hPa | 0 mm | - | 12 W/m² | - |
| 1777771815 | 18.33° C | 9% | 1021.5 hPa | 0 mm | - | 22 W/m² | - |
| 1777771215 | 18.89° C | 9% | 1021.4 hPa | 0 mm | - | 23 W/m² | - |
| 1777760415 | 20° C | 8% | 1022.7 hPa | 0 mm | - | 622 W/m² | - |
| 1777755037 | 20° C | 10% | 1024.6 hPa | 0 mm | - | 839 W/m² | - |
* Rain latest hour (hover to see other rain measurements)
** Current wind speed in m/s (hover to see current wind gust speed)